createdAt,value
2022-08-21T00:00:09.656Z,99707.23
2022-08-21T00:01:18.148Z,99712.26
2022-08-21T00:02:28.613Z,99700.95
2022-08-21T00:03:32.410Z,99700.95
2022-08-21T00:04:48.237Z,99709.13
2022-08-21T00:05:46.927Z,99709.13
2022-08-21T00:06:52.870Z,99709.77
2022-08-21T00:08:00.290Z,99709.77
2022-08-21T00:09:07.264Z,99701.81
2022-08-21T00:10:13.007Z,99710.22
2022-08-21T00:11:17.097Z,99716.94
2022-08-21T00:12:21.472Z,99716.94
2022-08-21T00:13:25.602Z,99722.83
2022-08-21T00:14:32.010Z,99722.83
2022-08-21T00:15:38.439Z,99722.39
2022-08-21T00:16:44.536Z,99715.70
2022-08-21T00:18:06.541Z,99722.20
2022-08-21T00:19:01.485Z,99722.20
2022-08-21T00:20:10.290Z,99717.80
2022-08-21T00:21:31.072Z,99719.93
2022-08-21T00:23:35.728Z,99719.10
2022-08-21T00:24:41.291Z,99719.93
2022-08-21T00:25:41.160Z,99719.93
2022-08-21T00:25:48.415Z,99713.66
2022-08-21T00:26:57.438Z,99713.66
2022-08-21T00:28:00.027Z,99720.97
2022-08-21T00:29:05.621Z,99714.48
2022-08-21T00:30:23.001Z,99715.52
2022-08-21T00:31:18.495Z,99715.52
2022-08-21T00:32:26.818Z,99713.66
2022-08-21T00:33:31.178Z,99713.66
2022-08-21T00:34:35.363Z,99710.70
2022-08-21T00:35:42.081Z,99715.70
2022-08-21T00:36:46.701Z,99711.94
2022-08-21T00:37:51.141Z,99715.25
2022-08-21T00:38:55.274Z,99715.25
2022-08-21T00:39:59.491Z,99713.59
2022-08-21T00:41:27.568Z,99717.98
2022-08-21T00:42:12.860Z,99717.98
2022-08-21T00:43:19.965Z,99719.05
2022-08-21T00:44:24.021Z,99711.94
2022-08-21T00:45:28.123Z,99712.98
2022-08-21T00:46:32.370Z,99712.98
2022-08-21T00:47:36.415Z,99714.66
2022-08-21T00:48:40.451Z,99714.66
2022-08-21T00:49:45.455Z,99714.04
2022-08-21T00:51:07.664Z,99713.42
2022-08-21T00:52:14.673Z,99713.42
2022-08-21T00:53:19.860Z,99717.80
2022-08-21T00:54:26.522Z,99717.80
2022-08-21T00:55:33.891Z,99719.93
2022-08-21T00:56:38.984Z,99712.80
2022-08-21T00:57:47.696Z,99713.66
2022-08-21T00:58:55.328Z,99716.14
2022-08-21T01:00:03.628Z,99711.14
2022-08-21T01:01:11.733Z,99711.14
2022-08-21T01:02:17.253Z,99707.80
2022-08-21T01:03:24.030Z,99708.69
2022-08-21T01:04:28.364Z,99710.13
2022-08-21T01:05:35.024Z,99710.13
2022-08-21T01:06:38.939Z,99707.23
2022-08-21T01:07:43.568Z,99707.23
2022-08-21T01:08:48.171Z,99702.00
2022-08-21T01:09:52.594Z,99713.95
2022-08-21T01:10:57.914Z,99708.50
2022-08-21T01:12:02.855Z,99708.50
2022-08-21T01:13:11.131Z,99710.39
2022-08-21T01:14:16.182Z,99710.39
2022-08-21T01:15:21.019Z,99709.95
2022-08-21T01:16:25.909Z,99712.88
2022-08-21T01:17:34.735Z,99715.84
2022-08-21T01:18:39.020Z,99715.84
2022-08-21T01:19:44.906Z,99715.02
2022-08-21T01:21:03.906Z,99713.33
2022-08-21T01:22:07.936Z,99713.33
2022-08-21T01:23:12.060Z,99716.67
2022-08-21T01:24:16.153Z,99702.44
2022-08-21T01:25:20.434Z,99715.02
2022-08-21T01:26:32.682Z,99704.13
2022-08-21T01:27:38.561Z,99704.13
2022-08-21T01:28:45.570Z,99710.60
2022-08-21T01:30:01.691Z,99706.84
2022-08-21T01:31:10.654Z,99705.78
2022-08-21T01:32:18.065Z,99705.78
2022-08-21T01:33:25.307Z,99707.44
2022-08-21T01:34:29.447Z,99707.44
2022-08-21T01:35:33.484Z,99705.34
2022-08-21T01:36:37.646Z,99704.89
2022-08-21T01:37:41.870Z,99695.69
2022-08-21T01:38:50.310Z,99695.69
2022-08-21T01:39:54.378Z,99697.35
2022-08-21T01:40:58.477Z,99696.91
2022-08-21T01:42:03.114Z,99692.91
2022-08-21T01:43:07.589Z,99698.36
2022-08-21T01:44:11.628Z,99698.36
2022-08-21T01:45:16.429Z,99705.70
2022-08-21T01:46:21.599Z,99705.70
2022-08-21T01:47:25.731Z,99700.45
2022-08-21T01:48:29.755Z,99700.45
2022-08-21T01:49:33.798Z,99699.80
2022-08-21T01:50:38.736Z,99699.80
2022-08-21T01:51:42.942Z,99706.70
2022-08-21T01:52:47.353Z,99708.16
2022-08-21T01:53:51.762Z,99705.43
2022-08-21T01:54:55.874Z,99705.43
2022-08-21T01:56:02.252Z,99707.33
2022-08-21T01:57:07.466Z,99699.98
2022-08-21T01:58:12.807Z,99699.98
2022-08-21T01:59:16.928Z,99700.19
2022-08-21T02:00:23.645Z,99698.53
2022-08-21T02:01:27.785Z,99698.53
2022-08-21T02:02:31.898Z,99697.70
2022-08-21T02:03:37.994Z,99697.26
2022-08-21T02:04:41.953Z,99698.70
2022-08-21T02:05:47.720Z,99697.64
2022-08-21T02:06:52.145Z,99702.64
2022-08-21T02:07:56.442Z,99702.64
2022-08-21T02:09:00.442Z,99698.44
2022-08-21T02:10:05.982Z,99701.78
2022-08-21T02:11:10.135Z,99701.78
2022-08-21T02:12:14.180Z,99707.61
2022-08-21T02:13:18.730Z,99706.54
2022-08-21T02:14:32.450Z,99520.98
2022-08-21T02:15:30.628Z,99716.40
2022-08-21T02:16:35.141Z,99721.02
2022-08-21T02:17:49.823Z,99721.02
2022-08-21T02:18:55.206Z,99716.23
2022-08-21T02:19:59.350Z,99720.84
2022-08-21T02:21:06.824Z,99713.95
2022-08-21T02:22:12.827Z,99713.95
2022-08-21T02:23:18.670Z,99718.56
2022-08-21T02:24:27.287Z,99720.28
2022-08-21T02:25:31.493Z,99719.66
2022-08-21T02:26:36.196Z,99651.25
2022-08-21T02:27:42.695Z,99713.80
2022-08-21T02:28:46.765Z,99713.80
2022-08-21T02:29:50.754Z,99714.69
2022-08-21T02:30:55.943Z,99720.20
2022-08-21T02:32:00.110Z,99725.02
2022-08-21T02:33:04.267Z,99718.74
2022-08-21T02:34:08.255Z,99712.47
2022-08-21T02:35:14.732Z,99710.34
2022-08-21T02:36:19.730Z,99714.75
2022-08-21T02:37:24.332Z,99714.75
2022-08-21T02:38:31.404Z,99710.34
2022-08-21T02:39:37.053Z,99710.34
2022-08-21T02:40:48.259Z,99708.23
2022-08-21T02:41:52.362Z,99712.03
2022-08-21T02:42:56.553Z,99711.20
2022-08-21T02:44:02.302Z,99705.75
2022-08-21T02:45:07.436Z,99706.58
2022-08-21T02:46:15.184Z,99706.58
2022-08-21T02:47:19.361Z,99714.75
2022-08-21T02:48:26.507Z,99714.75
2022-08-21T02:49:30.537Z,99707.86
2022-08-21T02:50:41.099Z,99712.88
2022-08-21T02:51:46.635Z,99708.95
2022-08-21T02:52:55.150Z,99703.94
2022-08-21T02:53:58.033Z,99709.20
2022-08-21T02:55:05.675Z,99709.20
2022-08-21T02:56:11.298Z,99698.76
2022-08-21T02:57:15.366Z,99715.53
2022-08-21T02:58:22.206Z,99712.19
2022-08-21T02:59:26.246Z,99712.19
2022-08-21T03:00:32.104Z,99708.45
2022-08-21T03:01:36.305Z,99710.75
2022-08-21T03:02:40.508Z,99710.75
2022-08-21T03:03:46.506Z,99710.59
2022-08-21T03:04:52.898Z,99713.08
2022-08-21T03:05:57.440Z,99713.08
2022-08-21T03:07:02.263Z,99706.81
2022-08-21T03:08:08.761Z,99716.44
2022-08-21T03:09:12.736Z,99716.44
2022-08-21T03:10:18.530Z,99720.61
2022-08-21T03:11:24.412Z,99720.61
2022-08-21T03:12:29.825Z,99723.95
2022-08-21T03:13:34.935Z,99723.95
2022-08-21T03:14:40.936Z,99722.06
2022-08-21T03:15:45.166Z,99722.06
2022-08-21T03:16:49.231Z,99719.34
2022-08-21T03:17:53.779Z,99724.15
2022-08-21T03:18:59.872Z,99542.44
2022-08-21T03:20:05.181Z,99723.51
2022-08-21T03:21:09.262Z,99722.00
2022-08-21T03:22:13.302Z,99728.45
2022-08-21T03:23:19.101Z,99728.45
2022-08-21T03:24:23.620Z,99723.38
2022-08-21T03:25:40.377Z,99723.38
2022-08-21T03:26:35.433Z,99725.38
2022-08-21T03:27:39.874Z,99725.38
2022-08-21T03:28:45.565Z,99728.19
2022-08-21T03:29:49.528Z,99728.19
2022-08-21T03:30:54.327Z,99726.39
2022-08-21T03:31:58.328Z,99726.39
2022-08-21T03:33:02.638Z,99730.88
2022-08-21T03:34:09.151Z,99729.44
2022-08-21T03:35:13.546Z,99732.33
2022-08-21T03:36:19.128Z,99731.79
2022-08-21T03:37:23.097Z,99734.30
2022-08-21T03:38:29.449Z,99734.30
2022-08-21T03:39:33.843Z,99735.05
2022-08-21T03:40:38.057Z,99740.05
2022-08-21T03:41:42.253Z,99740.05
2022-08-21T03:42:47.690Z,99746.22
2022-08-21T03:43:51.715Z,99737.67
2022-08-21T03:44:58.787Z,99740.92
2022-08-21T03:46:05.088Z,99740.92
2022-08-21T03:47:09.121Z,99747.34
2022-08-21T03:48:13.427Z,99750.37
2022-08-21T03:49:17.632Z,99750.37
2022-08-21T03:50:24.474Z,99759.46
2022-08-21T03:51:28.507Z,99757.45
2022-08-21T03:52:32.508Z,99759.39
2022-08-21T03:53:36.625Z,99759.39
2022-08-21T03:54:40.835Z,99763.50
2022-08-21T03:55:46.852Z,99493.97
2022-08-21T03:56:50.900Z,99770.78
2022-08-21T03:57:55.336Z,99770.78
2022-08-21T03:58:59.641Z,99776.86
2022-08-21T04:00:05.648Z,99776.86
2022-08-21T04:01:11.430Z,99772.02
2022-08-21T04:02:20.660Z,99772.02
2022-08-21T04:03:24.789Z,99770.27
2022-08-21T04:04:30.510Z,99770.27
2022-08-21T04:05:34.713Z,99770.05
2022-08-21T04:06:39.059Z,99770.05
2022-08-21T04:07:43.079Z,99775.73
2022-08-21T04:08:48.676Z,99773.16
2022-08-21T04:09:55.450Z,99772.55
2022-08-21T04:10:59.691Z,99772.55
2022-08-21T04:12:05.642Z,99770.88
2022-08-21T04:13:10.247Z,99768.14
2022-08-21T04:14:15.460Z,99757.61
2022-08-21T04:15:21.421Z,99762.94
2022-08-21T04:16:27.064Z,99771.84
2022-08-21T04:17:31.014Z,99768.76
2022-08-21T04:18:36.751Z,99771.75
2022-08-21T04:19:40.830Z,99770.56
2022-08-21T04:20:50.207Z,99770.56
2022-08-21T04:21:53.211Z,99770.20
2022-08-21T04:22:58.165Z,99766.23
2022-08-21T04:24:02.387Z,99770.77
2022-08-21T04:25:06.930Z,99770.77
2022-08-21T04:26:12.206Z,99771.00
2022-08-21T04:27:16.193Z,99774.90
2022-08-21T04:28:20.447Z,99769.20
2022-08-21T04:29:24.417Z,99771.66
2022-08-21T04:30:31.569Z,99773.61
2022-08-21T04:31:36.884Z,99769.76
2022-08-21T04:32:49.796Z,99770.68
2022-08-21T04:33:53.901Z,99770.68
2022-08-21T04:35:02.933Z,99780.75
2022-08-21T04:36:07.363Z,99778.83
2022-08-21T04:37:11.387Z,99778.83
2022-08-21T04:38:15.431Z,99778.10
2022-08-21T04:39:19.475Z,99773.78
2022-08-21T04:40:27.643Z,99777.44
2022-08-21T04:41:31.792Z,99777.44
2022-08-21T04:42:38.896Z,99782.89
2022-08-21T04:43:42.993Z,99769.48
2022-08-21T04:44:49.274Z,99769.48
2022-08-21T04:45:53.901Z,99768.48
2022-08-21T04:46:59.572Z,99766.04
2022-08-21T04:48:09.570Z,99768.37
2022-08-21T04:49:12.197Z,99764.49
2022-08-21T04:50:16.794Z,99764.49
2022-08-21T04:51:37.121Z,99766.13
2022-08-21T04:52:41.254Z,99765.98
2022-08-21T04:53:54.270Z,99767.48
2022-08-21T04:54:58.365Z,99766.08
2022-08-21T04:56:12.750Z,99772.16
2022-08-21T04:57:17.924Z,99764.71
2022-08-21T04:58:26.438Z,99776.02
2022-08-21T04:59:33.427Z,99776.02
2022-08-21T05:00:37.984Z,99769.12
2022-08-21T05:01:42.849Z,99770.27
2022-08-21T05:02:47.884Z,99769.59
2022-08-21T05:03:56.429Z,99766.28
2022-08-21T05:05:01.532Z,99767.34
2022-08-21T05:06:07.993Z,99769.08
2022-08-21T05:07:14.948Z,99767.17
2022-08-21T05:08:21.982Z,99771.27
2022-08-21T05:09:26.717Z,99771.27
2022-08-21T05:10:32.718Z,99771.44
2022-08-21T05:11:37.841Z,99767.83
2022-08-21T05:12:45.457Z,99767.83
2022-08-21T05:13:52.343Z,99761.29
2022-08-21T05:14:55.917Z,99761.28
2022-08-21T05:16:00.100Z,99762.84
2022-08-21T05:17:04.491Z,99768.05
2022-08-21T05:18:08.699Z,99768.05
2022-08-21T05:19:14.596Z,99763.39
2022-08-21T05:20:22.101Z,99771.50
2022-08-21T05:21:26.082Z,99770.30
2022-08-21T05:22:31.677Z,99769.80
2022-08-21T05:23:38.269Z,99757.84
2022-08-21T05:24:41.494Z,99757.84
2022-08-21T05:25:45.725Z,99766.23
2022-08-21T05:26:50.449Z,99774.70
2022-08-21T05:27:54.590Z,99774.70
2022-08-21T05:28:59.510Z,99763.59
2022-08-21T05:30:05.726Z,99764.61
2022-08-21T05:31:09.857Z,99773.88
2022-08-21T05:32:20.006Z,99773.88
2022-08-21T05:33:25.491Z,99799.22
2022-08-21T05:34:29.644Z,99799.22
2022-08-21T05:35:34.435Z,99771.27
2022-08-21T05:36:41.275Z,99772.27
2022-08-21T05:37:46.896Z,99763.88
2022-08-21T05:38:51.528Z,99763.88
2022-08-21T05:40:20.760Z,99753.19
2022-08-21T05:41:03.505Z,99753.19
2022-08-21T05:42:08.071Z,99759.03
2022-08-21T05:43:14.092Z,99759.03
2022-08-21T05:44:17.775Z,99751.91
2022-08-21T05:45:41.321Z,99759.47
2022-08-21T05:46:32.038Z,99768.98
2022-08-21T05:47:38.772Z,99756.86
2022-08-21T05:48:42.898Z,99756.86
2022-08-21T05:49:46.965Z,99752.70
2022-08-21T05:50:53.283Z,99754.54
2022-08-21T05:51:58.513Z,99748.58
2022-08-21T05:53:07.060Z,99748.41
2022-08-21T05:54:09.950Z,99748.41
2022-08-21T05:55:14.282Z,99751.86
2022-08-21T05:56:18.933Z,99751.86
2022-08-21T05:57:26.095Z,99759.95
2022-08-21T05:58:30.130Z,99759.95
2022-08-21T05:59:35.372Z,99758.74
2022-08-21T06:00:42.420Z,99758.74
2022-08-21T06:01:46.717Z,99765.44
2022-08-21T06:02:51.598Z,99756.86
2022-08-21T06:03:56.775Z,99751.00
2022-08-21T06:05:01.292Z,99756.61
2022-08-21T06:06:06.966Z,99756.61
2022-08-21T06:07:13.020Z,99758.95
2022-08-21T06:08:17.963Z,99770.22
2022-08-21T06:09:21.997Z,99759.34
2022-08-21T06:10:27.737Z,99759.34
2022-08-21T06:11:32.277Z,99765.34
2022-08-21T06:12:36.335Z,99764.02
2022-08-21T06:13:41.611Z,99765.66
2022-08-21T06:14:45.756Z,99757.69
2022-08-21T06:15:50.383Z,99757.69
2022-08-21T06:16:54.451Z,99756.87
2022-08-21T06:18:00.120Z,99763.48
2022-08-21T06:19:04.194Z,99754.12
2022-08-21T06:20:10.851Z,99766.53
2022-08-21T06:21:15.394Z,99764.23
2022-08-21T06:22:20.529Z,99768.99
2022-08-21T06:23:24.530Z,99764.63
2022-08-21T06:24:30.729Z,99764.63
2022-08-21T06:25:34.885Z,99764.73
2022-08-21T06:26:39.841Z,99754.55
2022-08-21T06:27:43.866Z,99754.55
2022-08-21T06:28:50.160Z,99754.38
2022-08-21T06:29:54.299Z,99748.61
2022-08-21T06:30:58.504Z,99746.45
2022-08-21T06:32:05.188Z,99752.23
2022-08-21T06:33:09.490Z,99756.94
2022-08-21T06:34:13.665Z,99756.94
2022-08-21T06:35:17.614Z,99747.83
2022-08-21T06:36:23.524Z,99750.07
2022-08-21T06:37:29.219Z,99750.07
2022-08-21T06:38:34.832Z,99749.51
2022-08-21T06:39:44.661Z,99745.92
2022-08-21T06:40:48.295Z,99751.16
2022-08-21T06:41:52.462Z,99744.54
2022-08-21T06:42:58.928Z,99744.54
2022-08-21T06:44:03.238Z,99740.70
2022-08-21T06:45:07.626Z,99752.56
2022-08-21T06:46:14.578Z,99752.56
2022-08-21T06:47:21.079Z,99749.24
2022-08-21T06:48:25.409Z,99746.78
2022-08-21T06:49:29.492Z,99746.78
2022-08-21T06:50:43.148Z,99750.92
2022-08-21T06:51:41.835Z,99750.92
2022-08-21T06:52:46.070Z,99753.34
2022-08-21T06:53:52.164Z,99745.07
2022-08-21T06:54:56.157Z,99750.89
2022-08-21T06:56:00.161Z,99753.95
2022-08-21T06:57:04.459Z,99753.95
2022-08-21T06:58:09.020Z,99744.59
2022-08-21T06:59:15.826Z,99744.59
2022-08-21T07:00:21.275Z,99749.27
2022-08-21T07:01:26.915Z,99749.27
2022-08-21T07:02:30.952Z,99752.84
2022-08-21T07:03:39.843Z,99745.92
2022-08-21T07:04:44.009Z,99748.38
2022-08-21T07:05:48.122Z,99748.38
2022-08-21T07:06:52.369Z,99744.63
2022-08-21T07:07:56.901Z,99744.63
2022-08-21T07:09:04.493Z,99746.34
2022-08-21T07:10:22.361Z,99748.30
2022-08-21T07:11:22.124Z,99738.88
2022-08-21T07:12:26.172Z,99740.29
2022-08-21T07:13:33.750Z,99738.11
2022-08-21T07:14:36.561Z,99738.11
2022-08-21T07:15:40.705Z,99738.36
2022-08-21T07:16:44.987Z,99735.92
2022-08-21T07:17:48.957Z,99735.92
2022-08-21T07:18:57.756Z,99740.55
2022-08-21T07:20:00.505Z,99740.55
2022-08-21T07:21:08.249Z,99747.04
2022-08-21T07:22:13.507Z,99744.78
2022-08-21T07:23:29.593Z,99734.85
2022-08-21T07:24:33.639Z,99734.85
2022-08-21T07:25:37.863Z,99747.04
2022-08-21T07:26:42.867Z,99736.05
2022-08-21T07:27:48.501Z,99736.05
2022-08-21T07:28:53.415Z,99739.70
2022-08-21T07:30:02.559Z,99756.05
2022-08-21T07:31:08.290Z,99756.05
2022-08-21T07:32:13.272Z,99741.16
2022-08-21T07:33:17.462Z,99741.16
2022-08-21T07:34:21.666Z,99739.26
2022-08-21T07:35:27.683Z,99739.52
2022-08-21T07:36:33.319Z,99739.52
2022-08-21T07:37:39.038Z,99735.06
2022-08-21T07:38:43.115Z,99737.83
2022-08-21T07:39:47.327Z,99737.83
2022-08-21T07:40:56.367Z,99732.34
2022-08-21T07:42:02.940Z,99736.77
2022-08-21T07:43:06.167Z,99732.10
2022-08-21T07:44:10.166Z,99725.48
2022-08-21T07:45:18.604Z,99725.48
2022-08-21T07:46:25.708Z,99738.44
2022-08-21T07:47:42.358Z,99727.65
2022-08-21T07:48:36.841Z,99727.65
2022-08-21T07:49:40.909Z,99735.94
2022-08-21T07:50:45.533Z,99735.66
2022-08-21T07:51:50.958Z,99735.66
2022-08-21T07:52:55.055Z,99725.77
2022-08-21T07:54:00.845Z,99725.77
2022-08-21T07:55:06.650Z,99736.27
2022-08-21T07:56:12.452Z,99727.17
2022-08-21T07:57:19.277Z,99728.03
2022-08-21T07:58:25.138Z,99728.03
2022-08-21T07:59:29.948Z,99727.19
2022-08-21T08:00:35.160Z,99725.55
2022-08-21T08:01:39.220Z,99728.30
2022-08-21T08:02:49.199Z,99723.64
2022-08-21T08:03:53.334Z,99723.64
2022-08-21T08:05:02.578Z,99721.17
2022-08-21T08:06:07.865Z,99721.17
2022-08-21T08:07:14.572Z,99727.50
2022-08-21T08:08:18.733Z,99728.05
2022-08-21T08:09:22.795Z,99728.05
2022-08-21T08:10:30.383Z,99721.45
2022-08-21T08:11:47.471Z,99721.45
2022-08-21T08:12:43.562Z,99721.44
2022-08-21T08:13:52.683Z,99721.17
2022-08-21T08:14:59.133Z,99719.80
2022-08-21T08:16:04.888Z,99723.12
2022-08-21T08:17:08.922Z,99721.75
2022-08-21T08:18:12.998Z,99721.75
2022-08-21T08:19:16.991Z,99714.34
2022-08-21T08:20:23.804Z,99712.17
2022-08-21T08:21:28.235Z,99718.20
2022-08-21T08:22:32.508Z,99726.95
2022-08-21T08:23:39.957Z,99722.30
2022-08-21T08:24:45.446Z,99722.01
2022-08-21T08:25:49.479Z,99716.80
2022-08-21T08:26:53.983Z,99716.80
2022-08-21T08:27:58.422Z,99716.00
2022-08-21T08:29:17.837Z,99716.00
2022-08-21T08:30:11.613Z,99714.91
2022-08-21T08:31:15.722Z,99714.91
2022-08-21T08:32:22.053Z,99719.36
2022-08-21T08:33:26.139Z,99719.36
2022-08-21T08:34:30.192Z,99719.36
2022-08-21T08:35:34.380Z,99720.99
2022-08-21T08:36:40.733Z,99717.66
2022-08-21T08:37:52.194Z,99712.16
2022-08-21T08:38:53.552Z,99720.95
2022-08-21T08:39:57.807Z,99720.95
2022-08-21T08:41:11.026Z,99724.28
2022-08-21T08:42:33.386Z,99717.68
2022-08-21T08:43:37.474Z,99715.99
2022-08-21T08:44:45.661Z,99720.38
2022-08-21T08:45:59.311Z,99707.16
2022-08-21T08:47:04.817Z,99707.16
2022-08-21T08:48:14.043Z,99718.16
2022-08-21T08:49:21.734Z,99718.16
2022-08-21T08:50:43.889Z,99709.59
2022-08-21T08:51:59.920Z,99708.83
2022-08-21T08:53:09.678Z,99708.83
2022-08-21T08:54:22.718Z,99714.07
2022-08-21T08:55:29.709Z,99714.07
2022-08-21T08:56:35.457Z,99712.70
2022-08-21T08:57:44.066Z,99711.61
2022-08-21T08:58:52.887Z,99715.22
2022-08-21T09:00:00.345Z,99715.22
2022-08-21T09:01:10.511Z,99726.47
2022-08-21T09:02:17.419Z,99720.09
2022-08-21T09:03:24.991Z,99720.09
2022-08-21T09:04:30.216Z,99724.22
2022-08-21T09:06:02.608Z,99716.23
2022-08-21T09:07:15.269Z,99715.40
2022-08-21T09:08:41.613Z,99719.23
2022-08-21T09:10:21.486Z,99719.23
2022-08-21T09:11:34.449Z,99715.66
2022-08-21T09:12:59.552Z,99717.87
2022-08-21T09:14:08.014Z,99714.85
2022-08-21T09:15:32.991Z,99712.91
2022-08-21T09:16:55.262Z,99713.75
2022-08-21T09:18:24.799Z,99713.75
2022-08-21T09:19:48.760Z,99715.44
2022-08-21T09:21:07.579Z,99711.59
2022-08-21T09:22:17.531Z,99711.59
2022-08-21T09:23:39.833Z,99711.60
2022-08-21T09:25:10.836Z,99708.55
2022-08-21T09:26:20.648Z,99708.55
2022-08-21T09:27:24.787Z,99711.55
2022-08-21T09:28:30.377Z,99711.26
2022-08-21T09:29:41.584Z,99710.14
2022-08-21T09:30:45.917Z,99711.30
2022-08-21T09:31:49.975Z,99709.66
2022-08-21T09:32:54.122Z,99714.92
2022-08-21T09:34:06.909Z,99714.92
2022-08-21T09:35:18.736Z,99718.77
2022-08-21T09:36:43.771Z,99713.81
2022-08-21T09:37:59.410Z,99728.69
2022-08-21T09:39:04.134Z,99709.41
2022-08-21T09:40:23.446Z,99706.09
2022-08-21T09:41:33.228Z,99706.09
2022-08-21T09:42:37.376Z,99711.60
2022-08-21T09:43:41.669Z,99711.60
2022-08-21T09:44:52.579Z,99713.19
2022-08-21T09:46:09.303Z,99713.19
2022-08-21T09:47:17.798Z,99702.71
2022-08-21T09:48:26.993Z,99717.32
2022-08-21T09:49:36.248Z,99712.64
2022-08-21T09:50:53.343Z,99709.59
2022-08-21T09:51:54.708Z,99702.15
2022-08-21T09:53:03.142Z,99699.97
2022-08-21T09:54:10.195Z,99699.97
2022-08-21T09:55:25.959Z,99723.70
2022-08-21T09:56:38.534Z,99699.69
2022-08-21T09:57:50.623Z,99697.20
2022-08-21T09:58:52.874Z,99697.20
2022-08-21T10:00:03.665Z,99707.67
2022-08-21T10:01:07.430Z,99720.34
2022-08-21T10:02:26.306Z,99720.34
2022-08-21T10:03:30.487Z,99696.66
2022-08-21T10:04:36.803Z,99706.02
2022-08-21T10:05:47.874Z,99707.12
2022-08-21T10:06:48.946Z,99707.12
2022-08-21T10:07:54.842Z,99700.52
2022-08-21T10:09:21.086Z,99699.13
2022-08-21T10:10:27.125Z,99715.37
2022-08-21T10:11:32.657Z,99710.40
2022-08-21T10:13:01.850Z,99710.93
2022-08-21T10:14:17.802Z,99705.69
2022-08-21T10:15:36.618Z,99696.31
2022-08-21T10:16:45.168Z,99686.70
2022-08-21T10:18:00.711Z,99702.13
2022-08-21T10:19:12.512Z,99697.72
2022-08-21T10:20:22.190Z,99697.72
2022-08-21T10:21:39.732Z,99698.84
2022-08-21T10:22:46.784Z,99693.34
2022-08-21T10:24:05.823Z,99689.48
2022-08-21T10:25:33.758Z,99702.71
2022-08-21T10:26:55.713Z,99692.50
2022-08-21T10:28:06.608Z,99680.11
2022-08-21T10:29:29.906Z,99680.11
2022-08-21T10:30:51.291Z,99689.17
2022-08-21T10:32:25.575Z,99682.84
2022-08-21T10:33:39.569Z,99683.68
2022-08-21T10:34:51.191Z,99689.75
2022-08-21T10:36:10.935Z,99687.82
2022-08-21T10:37:31.005Z,99687.82
2022-08-21T10:39:02.320Z,99680.11
2022-08-21T10:40:01.142Z,99672.38
2022-08-21T10:41:24.685Z,99693.34
2022-08-21T10:42:47.724Z,99685.91
2022-08-21T10:44:12.400Z,99685.91
2022-08-21T10:45:28.034Z,99680.67
2022-08-21T10:46:49.214Z,99680.67
2022-08-21T10:47:58.996Z,99680.11
2022-08-21T10:49:06.108Z,99675.45
2022-08-21T10:50:20.465Z,99664.72
2022-08-21T10:51:45.351Z,99664.72
2022-08-21T10:52:55.030Z,99672.46
2022-08-21T10:54:23.477Z,99674.65
2022-08-21T10:55:49.858Z,99674.65
2022-08-21T10:56:46.826Z,99664.72
2022-08-21T10:57:59.846Z,99659.48
2022-08-21T10:59:23.054Z,99659.48
2022-08-21T11:00:36.606Z,99670.23
2022-08-21T11:01:59.734Z,99670.23
2022-08-21T11:03:09.311Z,99662.53
2022-08-21T11:04:19.280Z,99662.53
2022-08-21T11:05:38.247Z,99664.17
2022-08-21T11:06:45.717Z,99661.98
2022-08-21T11:08:09.921Z,99664.18
2022-08-21T11:09:16.999Z,99663.63
2022-08-21T11:10:31.550Z,99665.81
2022-08-21T11:11:43.838Z,99665.81
2022-08-21T11:12:52.002Z,99672.45
2022-08-21T11:14:00.580Z,99675.98
2022-08-21T11:15:28.704Z,99675.98
2022-08-21T11:16:29.239Z,99664.18
2022-08-21T11:17:44.807Z,99662.54
2022-08-21T11:19:05.844Z,99664.72
2022-08-21T11:20:21.739Z,99663.61
2022-08-21T11:21:51.254Z,99663.61
2022-08-21T11:23:04.590Z,99652.88
2022-08-21T11:24:20.714Z,99659.21
2022-08-21T11:25:37.247Z,99659.21
2022-08-21T11:27:02.215Z,99677.34
2022-08-21T11:28:14.906Z,99666.06
2022-08-21T11:29:27.001Z,99655.34
2022-08-21T11:30:32.209Z,99655.34
2022-08-21T11:31:42.061Z,99644.06
2022-08-21T11:32:59.275Z,99644.06
2022-08-21T11:34:31.701Z,99660.61
2022-08-21T11:35:53.288Z,99660.61
2022-08-21T11:37:04.612Z,99651.48
2022-08-21T11:38:35.514Z,99651.48
2022-08-21T11:40:00.323Z,99646.27
2022-08-21T11:41:23.556Z,99652.60
2022-08-21T11:42:45.418Z,99652.60
2022-08-21T11:43:58.469Z,99652.05
2022-08-21T11:45:41.554Z,99645.97
2022-08-21T11:46:51.286Z,99656.47
2022-08-21T11:48:30.955Z,99656.47
2022-08-21T11:49:52.587Z,99643.22
2022-08-21T11:50:58.597Z,99631.66
2022-08-21T11:52:17.904Z,99636.32
2022-08-21T11:53:33.814Z,99636.32
2022-08-21T11:54:45.119Z,99632.75
2022-08-21T11:55:52.138Z,99619.22
2022-08-21T11:57:05.122Z,99636.33
2022-08-21T11:58:20.760Z,99646.53
2022-08-21T11:59:27.739Z,99636.06
2022-08-21T12:00:37.608Z,99637.70
2022-08-21T12:01:44.916Z,99642.40
2022-08-21T12:02:52.005Z,99642.40
2022-08-21T12:04:07.776Z,99636.59
2022-08-21T12:05:14.814Z,99636.59
2022-08-21T12:06:30.265Z,99641.58
2022-08-21T12:07:36.502Z,99651.76
2022-08-21T12:08:48.275Z,99648.48
2022-08-21T12:09:58.360Z,99643.22
2022-08-21T12:11:23.219Z,99643.22
2022-08-21T12:12:36.221Z,99638.82
2022-08-21T12:13:43.578Z,99653.14
2022-08-21T12:14:51.880Z,99653.14
2022-08-21T12:16:07.254Z,99649.85
2022-08-21T12:17:24.538Z,99648.47
2022-08-21T12:18:32.809Z,99642.13
2022-08-21T12:19:37.297Z,99639.34
2022-08-21T12:20:50.235Z,99633.30
2022-08-21T12:21:53.568Z,99635.23
2022-08-21T12:23:12.679Z,99635.23
2022-08-21T12:24:17.816Z,99643.77
2022-08-21T12:25:23.019Z,99641.58
2022-08-21T12:26:30.119Z,99638.26
2022-08-21T12:27:48.983Z,99634.39
2022-08-21T12:28:54.621Z,99634.39
2022-08-21T12:30:01.623Z,99644.89
2022-08-21T12:31:07.256Z,99634.39
2022-08-21T12:32:21.682Z,99636.06
2022-08-21T12:33:28.709Z,99624.47
2022-08-21T12:34:38.405Z,99624.47
2022-08-21T12:35:44.681Z,99622.80
2022-08-21T12:37:05.829Z,99628.61
2022-08-21T12:38:10.504Z,99628.61
2022-08-21T12:39:20.101Z,99626.11
2022-08-21T12:40:33.330Z,99626.11
2022-08-21T12:41:41.818Z,99628.05
2022-08-21T12:42:58.264Z,99628.05
2022-08-21T12:44:02.328Z,99634.39
2022-08-21T12:45:08.190Z,99634.39
2022-08-21T12:46:24.907Z,99629.43
2022-08-21T12:47:34.859Z,99632.19
2022-08-21T12:48:44.667Z,99633.83
2022-08-21T12:49:54.331Z,99639.34
2022-08-21T12:51:01.428Z,99627.78
2022-08-21T12:54:53.193Z,99630.81
2022-08-21T12:56:02.188Z,99623.91
2022-08-21T12:57:08.096Z,99623.91
2022-08-21T12:58:23.485Z,99627.78
2022-08-21T12:59:27.985Z,99627.23
2022-08-21T13:00:32.235Z,99626.67
2022-08-21T13:01:42.256Z,99629.42
2022-08-21T13:02:49.319Z,99629.42
2022-08-21T13:04:04.081Z,99613.70
2022-08-21T13:05:05.696Z,99626.67
2022-08-21T13:06:12.878Z,99626.67
2022-08-21T13:07:22.570Z,99638.82
2022-08-21T13:08:29.058Z,99638.82
2022-08-21T13:09:33.300Z,99633.83
2022-08-21T13:10:40.253Z,99621.42
2022-08-21T13:11:47.153Z,99630.25
2022-08-21T13:12:58.815Z,99630.25
2022-08-21T13:14:06.231Z,99631.37
2022-08-21T13:15:12.419Z,99632.75
2022-08-21T13:16:28.404Z,99623.36
2022-08-21T13:17:37.184Z,99632.19
2022-08-21T13:18:54.210Z,99634.95
2022-08-21T13:20:02.835Z,99637.70
2022-08-21T13:21:11.780Z,99634.39
2022-08-21T13:22:34.903Z,99622.27